createdAt,value
2023-01-08T00:01:34.139Z,97741.69
2023-01-08T00:04:00.655Z,97735.69
2023-01-08T00:06:29.556Z,97719.56
2023-01-08T00:08:55.952Z,97729.97
2023-01-08T00:11:24.768Z,97719.75
2023-01-08T00:13:52.765Z,97723.38
2023-01-08T00:16:20.567Z,97714.25
2023-01-08T00:18:47.720Z,97704.59
2023-01-08T00:21:14.549Z,97708.09
2023-01-08T00:23:41.162Z,97704.28
2023-01-08T00:26:10.379Z,97698.16
2023-01-08T00:28:41.729Z,97696.63
2023-01-08T00:31:10.957Z,97706.16
2023-01-08T00:33:43.986Z,97701.09
2023-01-08T00:36:13.698Z,97692.88
2023-01-08T00:38:43.440Z,97690.44
2023-01-08T00:41:12.145Z,97685.47
2023-01-08T00:43:41.538Z,97685.22
2023-01-08T00:46:08.968Z,97676.03
2023-01-08T00:48:38.919Z,97671.09
2023-01-08T00:51:07.551Z,97664.59
2023-01-08T00:53:35.541Z,97680.19
2023-01-08T00:56:08.334Z,97683.84
2023-01-08T00:58:37.773Z,97665.28
2023-01-08T01:01:16.201Z,97675.03
2023-01-08T01:03:44.922Z,97662.50
2023-01-08T01:06:13.512Z,97667.78
2023-01-08T01:08:40.652Z,97675.31
2023-01-08T01:11:30.556Z,97681.34
2023-01-08T01:13:57.596Z,97673.16
2023-01-08T01:16:24.208Z,97676.75
2023-01-08T01:18:52.288Z,97673.22
2023-01-08T01:21:26.229Z,97682.38
2023-01-08T01:23:58.313Z,97688.38
2023-01-08T01:26:26.006Z,97686.13
2023-01-08T01:28:54.941Z,97702.72
2023-01-08T01:31:22.731Z,97696.00
2023-01-08T01:33:50.452Z,97692.63
2023-01-08T01:36:19.235Z,97689.34
2023-01-08T01:38:50.847Z,97685.09
2023-01-08T01:41:48.950Z,97692.44
2023-01-08T01:44:44.131Z,97688.41
2023-01-08T01:47:22.244Z,97688.41
2023-01-08T01:49:55.749Z,97694.00
2023-01-08T01:52:24.101Z,97694.00
2023-01-08T01:54:52.223Z,97688.97
2023-01-08T01:57:18.710Z,97681.56
2023-01-08T01:59:47.005Z,97670.63
2023-01-08T02:02:13.719Z,97681.72
2023-01-08T02:04:40.659Z,97676.97
2023-01-08T02:07:38.599Z,97669.91
2023-01-08T02:10:20.377Z,97671.31
2023-01-08T02:13:13.514Z,97667.16
2023-01-08T02:15:48.856Z,97664.47
2023-01-08T02:18:22.533Z,97665.84
2023-01-08T02:21:11.128Z,97668.72
2023-01-08T02:24:11.495Z,97658.88
2023-01-08T02:26:40.126Z,97653.72
2023-01-08T02:29:08.185Z,97657.22
2023-01-08T02:31:38.355Z,97657.56
2023-01-08T02:34:04.861Z,97651.88
2023-01-08T02:36:57.821Z,97639.91
2023-01-08T02:39:36.370Z,97643.69
2023-01-08T02:42:17.025Z,97630.28
2023-01-08T02:44:58.104Z,97628.59
2023-01-08T02:47:30.392Z,97630.34
2023-01-08T02:50:31.535Z,97626.38
2023-01-08T02:53:12.979Z,97611.09
2023-01-08T02:55:43.915Z,97608.63
2023-01-08T02:58:12.052Z,97605.53
2023-01-08T03:00:41.093Z,97603.22
2023-01-08T03:03:12.604Z,97611.50
2023-01-08T03:05:41.033Z,97598.72
2023-01-08T03:08:09.040Z,97594.06
2023-01-08T03:10:38.980Z,97586.63
2023-01-08T03:13:11.781Z,97598.47
2023-01-08T03:15:46.293Z,97594.50
2023-01-08T03:18:18.855Z,97595.53
2023-01-08T03:20:47.545Z,97595.81
2023-01-08T03:23:16.411Z,97588.72
2023-01-08T03:25:46.554Z,97586.81
2023-01-08T03:28:36.161Z,97577.94
2023-01-08T03:31:03.061Z,97587.38
2023-01-08T03:33:31.889Z,97585.97
2023-01-08T03:36:02.143Z,97588.34
2023-01-08T03:38:33.448Z,97584.22
2023-01-08T03:41:05.253Z,97574.06
2023-01-08T03:43:31.763Z,97569.53
2023-01-08T03:46:03.387Z,97574.16
2023-01-08T03:48:33.228Z,97564.25
2023-01-08T03:51:00.031Z,97571.03
2023-01-08T03:53:27.632Z,97555.47
2023-01-08T03:55:54.501Z,97568.91
2023-01-08T03:58:21.040Z,97569.38
2023-01-08T04:00:47.566Z,97560.19
2023-01-08T04:03:13.976Z,97560.81
2023-01-08T04:05:40.385Z,97561.09
2023-01-08T04:08:06.870Z,97553.47
2023-01-08T04:10:33.509Z,97546.03
2023-01-08T04:13:00.012Z,97551.44
2023-01-08T04:15:26.606Z,97545.06
2023-01-08T04:17:54.060Z,97549.47
2023-01-08T04:20:20.421Z,97540.72
2023-01-08T04:22:46.906Z,97531.69
2023-01-08T04:25:13.434Z,97537.97
2023-01-08T04:27:39.897Z,97534.06
2023-01-08T04:30:06.823Z,97538.81
2023-01-08T04:32:33.359Z,97541.91
2023-01-08T04:34:59.825Z,97528.09
2023-01-08T04:37:26.293Z,97529.53
2023-01-08T04:39:52.766Z,97533.13
2023-01-08T04:42:19.247Z,97527.41
2023-01-08T04:44:45.685Z,97523.06
2023-01-08T04:47:12.043Z,97526.41
2023-01-08T04:49:38.438Z,97530.00
2023-01-08T04:52:04.848Z,97521.22
2023-01-08T04:54:31.299Z,97516.09
2023-01-08T04:56:57.777Z,97512.47
2023-01-08T04:59:24.198Z,97510.22
2023-01-08T05:01:50.708Z,97517.44
2023-01-08T05:04:17.264Z,97517.03
2023-01-08T05:06:43.754Z,97525.16
2023-01-08T05:09:11.735Z,97516.50
2023-01-08T05:11:38.148Z,97509.31
2023-01-08T05:14:04.914Z,97518.94
2023-01-08T05:16:32.036Z,97513.69
2023-01-08T05:18:58.593Z,97517.19
2023-01-08T05:21:25.332Z,97517.03
2023-01-08T05:23:51.800Z,97514.81
2023-01-08T05:26:19.366Z,97511.44
2023-01-08T05:28:46.325Z,97509.59
2023-01-08T05:31:13.271Z,97516.91
2023-01-08T05:33:40.021Z,97514.94
2023-01-08T05:36:08.437Z,97517.16
2023-01-08T05:38:35.240Z,97516.00
2023-01-08T05:41:01.943Z,97510.47
2023-01-08T05:43:29.472Z,97513.03
2023-01-08T05:46:00.833Z,97507.16
2023-01-08T05:48:28.189Z,97512.38
2023-01-08T05:50:54.750Z,97512.28
2023-01-08T05:53:21.295Z,97514.78
2023-01-08T05:55:47.833Z,97505.16
2023-01-08T05:58:14.668Z,97501.16
2023-01-08T06:00:41.070Z,97498.03
2023-01-08T06:03:07.572Z,97497.25
2023-01-08T06:05:34.193Z,97504.72
2023-01-08T06:08:01.293Z,97503.88
2023-01-08T06:10:28.304Z,97497.75
2023-01-08T06:12:55.709Z,97501.88
2023-01-08T06:15:22.441Z,97496.44
2023-01-08T06:17:48.869Z,97500.41
2023-01-08T06:20:15.506Z,97500.44
2023-01-08T06:22:42.071Z,97498.09
2023-01-08T06:25:08.795Z,97497.03
2023-01-08T06:27:35.252Z,97501.66
2023-01-08T06:30:01.837Z,97495.31
2023-01-08T06:32:28.326Z,97498.84
2023-01-08T06:34:54.829Z,97488.72
2023-01-08T06:37:21.685Z,97490.69
2023-01-08T06:39:48.095Z,97490.88
2023-01-08T06:42:14.583Z,97493.44
2023-01-08T06:44:41.085Z,97485.03
2023-01-08T06:47:07.576Z,97492.53
2023-01-08T06:49:34.009Z,97495.91
2023-01-08T06:52:00.418Z,97498.09
2023-01-08T06:54:26.921Z,97499.84
2023-01-08T06:56:54.481Z,97500.50
2023-01-08T06:59:21.911Z,97504.50
2023-01-08T07:01:48.914Z,97518.66
2023-01-08T07:04:15.562Z,97515.50
2023-01-08T07:06:42.042Z,97521.94
2023-01-08T07:09:12.603Z,97517.38
2023-01-08T07:11:39.950Z,97514.81
2023-01-08T07:14:06.518Z,97510.34
2023-01-08T07:16:34.079Z,97519.16
2023-01-08T07:19:00.683Z,97511.38
2023-01-08T07:21:27.124Z,97519.78
2023-01-08T07:23:53.552Z,97520.41
2023-01-08T07:26:20.156Z,97529.94
2023-01-08T07:28:46.716Z,97526.56
2023-01-08T07:31:13.257Z,97531.22
2023-01-08T07:33:39.937Z,97530.41
2023-01-08T07:36:06.900Z,97521.38
2023-01-08T07:38:33.449Z,97529.59
2023-01-08T07:40:59.910Z,97529.28
2023-01-08T07:43:26.511Z,97529.13
2023-01-08T07:45:53.044Z,97526.38
2023-01-08T07:48:20.184Z,97529.03
2023-01-08T07:50:46.824Z,97526.00
2023-01-08T07:53:16.938Z,97511.88
2023-01-08T07:55:43.595Z,97523.22
2023-01-08T07:58:11.757Z,97525.75
2023-01-08T08:00:38.703Z,97518.81
2023-01-08T08:03:07.071Z,97523.97
2023-01-08T08:05:34.063Z,97514.69
2023-01-08T08:08:01.110Z,97522.44
2023-01-08T08:10:28.102Z,97528.50
2023-01-08T08:12:54.559Z,97528.81
2023-01-08T08:15:20.991Z,97522.97
2023-01-08T08:17:49.529Z,97524.91
2023-01-08T08:20:16.191Z,97516.22
2023-01-08T08:22:42.719Z,97514.88
2023-01-08T08:25:09.448Z,97505.53
2023-01-08T08:27:36.254Z,97503.56
2023-01-08T08:30:03.115Z,97504.31
2023-01-08T08:32:29.543Z,97515.78
2023-01-08T08:34:55.957Z,97513.00
2023-01-08T08:37:22.361Z,97519.31
2023-01-08T08:39:48.786Z,97520.78
2023-01-08T08:42:15.335Z,97522.63
2023-01-08T08:44:42.961Z,97521.53
2023-01-08T08:47:09.934Z,97516.41
2023-01-08T08:49:39.934Z,97512.56
2023-01-08T08:52:06.821Z,97521.31
2023-01-08T08:54:33.307Z,97517.41
2023-01-08T08:56:59.730Z,97520.03
2023-01-08T08:59:26.215Z,97522.38
2023-01-08T09:01:52.729Z,97519.28
2023-01-08T09:04:19.334Z,97518.78
2023-01-08T09:06:45.760Z,97527.84
2023-01-08T09:09:12.419Z,97515.66
2023-01-08T09:11:38.871Z,97512.53
2023-01-08T09:14:05.289Z,97510.59
2023-01-08T09:16:33.063Z,97507.19
2023-01-08T09:18:59.636Z,97514.47
2023-01-08T09:21:26.080Z,97513.78
2023-01-08T09:23:52.559Z,97518.50
2023-01-08T09:26:19.118Z,97521.81
2023-01-08T09:28:45.702Z,97506.72
2023-01-08T09:31:12.312Z,97522.66
2023-01-08T09:33:38.855Z,97512.53
2023-01-08T09:36:08.546Z,97515.91
2023-01-08T09:38:35.137Z,97509.41
2023-01-08T09:41:05.565Z,97519.22
2023-01-08T09:43:36.441Z,97515.13
2023-01-08T09:46:06.871Z,97517.44
2023-01-08T09:48:36.986Z,97520.44
2023-01-08T09:51:04.816Z,97519.22
2023-01-08T09:53:33.296Z,97510.59
2023-01-08T09:56:09.694Z,97509.09
2023-01-08T09:58:50.753Z,97504.75
2023-01-08T10:01:21.832Z,97495.66
2023-01-08T10:04:03.091Z,97513.06
2023-01-08T10:06:31.182Z,97504.28
2023-01-08T10:08:58.372Z,97504.09
2023-01-08T10:11:34.425Z,97504.59
2023-01-08T10:14:01.038Z,97511.66
2023-01-08T10:16:35.659Z,97505.28
2023-01-08T10:19:04.118Z,97507.16
2023-01-08T10:21:41.533Z,97495.81
2023-01-08T10:24:08.088Z,97486.41
2023-01-08T10:26:37.322Z,97490.47
2023-01-08T10:29:20.521Z,97478.09
2023-01-08T10:31:52.709Z,97472.44
2023-01-08T10:34:28.566Z,97463.97
2023-01-08T10:36:57.738Z,97460.00
2023-01-08T10:39:27.946Z,97457.50
2023-01-08T10:42:15.778Z,97458.13
2023-01-08T10:44:57.089Z,97455.66
2023-01-08T10:47:26.835Z,97461.28
2023-01-08T10:49:53.919Z,97475.03
2023-01-08T10:52:29.678Z,97464.94
2023-01-08T10:54:56.271Z,97462.75
2023-01-08T10:57:30.824Z,97458.13
2023-01-08T10:59:59.392Z,97457.53
2023-01-08T11:02:39.100Z,97448.38
2023-01-08T11:05:11.377Z,97437.72
2023-01-08T11:07:40.213Z,97430.59
2023-01-08T11:10:20.083Z,97433.75
2023-01-08T11:12:48.078Z,97431.41
2023-01-08T11:15:14.480Z,97434.88
2023-01-08T11:17:41.054Z,97430.75
2023-01-08T11:20:18.948Z,97426.28
2023-01-08T11:22:45.599Z,97428.56
2023-01-08T11:25:24.368Z,97427.75
2023-01-08T11:27:52.308Z,97421.22
2023-01-08T11:30:26.038Z,97413.09
2023-01-08T11:33:18.139Z,97409.84
2023-01-08T11:35:54.219Z,97400.00
2023-01-08T11:38:20.723Z,97401.31
2023-01-08T11:40:53.021Z,97388.28
2023-01-08T11:43:38.293Z,97393.81
2023-01-08T11:46:35.765Z,97372.94
2023-01-08T11:49:29.354Z,97374.81
2023-01-08T11:52:08.813Z,97375.34
2023-01-08T11:54:57.560Z,97371.50
2023-01-08T11:57:53.205Z,97365.03
2023-01-08T12:00:55.337Z,97353.19
2023-01-08T12:03:33.802Z,97360.03
2023-01-08T12:06:36.863Z,97346.84
2023-01-08T12:09:22.957Z,97346.50
2023-01-08T12:12:07.971Z,97340.44
2023-01-08T12:15:04.069Z,97326.91
2023-01-08T12:17:33.525Z,97317.97
2023-01-08T12:20:21.163Z,97321.06
2023-01-08T12:23:06.633Z,97314.78
2023-01-08T12:25:47.325Z,97308.59
2023-01-08T12:28:28.564Z,97310.88
2023-01-08T12:31:36.184Z,97312.31
2023-01-08T12:34:16.613Z,97312.19
2023-01-08T12:36:48.121Z,97308.13
2023-01-08T12:39:30.164Z,97307.78
2023-01-08T12:42:10.805Z,97302.69
2023-01-08T12:44:38.464Z,97296.81
2023-01-08T12:47:07.626Z,97298.34
2023-01-08T12:49:47.913Z,97297.47
2023-01-08T12:52:45.900Z,97288.31
2023-01-08T12:55:46.526Z,97276.06
2023-01-08T12:59:10.160Z,97272.56
2023-01-08T13:02:04.886Z,97270.41
2023-01-08T13:04:42.034Z,97271.78
2023-01-08T13:07:16.496Z,97267.88
2023-01-08T13:09:43.475Z,97268.53
2023-01-08T13:12:14.433Z,97266.25
2023-01-08T13:14:43.468Z,97263.22
2023-01-08T13:17:22.220Z,97263.03
2023-01-08T13:20:01.287Z,97279.84
2023-01-08T13:22:37.525Z,97268.25
2023-01-08T13:25:17.066Z,97264.41
2023-01-08T13:27:45.601Z,97270.53
2023-01-08T13:30:36.401Z,97267.25
2023-01-08T13:33:02.962Z,97267.13
2023-01-08T13:35:31.430Z,97244.63
2023-01-08T13:38:10.101Z,97233.06
2023-01-08T13:40:53.480Z,97237.28
2023-01-08T13:43:30.701Z,97249.06
2023-01-08T13:46:00.305Z,97237.50
2023-01-08T13:48:37.315Z,97229.53
2023-01-08T13:51:04.250Z,97224.72
2023-01-08T13:53:30.738Z,97220.38
2023-01-08T13:56:05.822Z,97226.38
2023-01-08T13:58:36.690Z,97225.56
2023-01-08T14:01:04.852Z,97220.09
2023-01-08T14:03:44.160Z,97217.41
2023-01-08T14:06:13.251Z,97230.34
2023-01-08T14:09:00.387Z,97220.84
2023-01-08T14:11:46.687Z,97211.72
2023-01-08T14:14:15.119Z,97216.72
2023-01-08T14:16:42.023Z,97216.91
2023-01-08T14:19:11.668Z,97223.03
2023-01-08T14:21:38.213Z,97215.91
2023-01-08T14:24:06.059Z,97224.19
2023-01-08T14:26:38.920Z,97212.75
2023-01-08T14:29:15.201Z,97204.47
2023-01-08T14:32:01.495Z,97201.16
2023-01-08T14:34:31.187Z,97208.47
2023-01-08T14:36:57.925Z,97202.44
2023-01-08T14:39:31.928Z,97199.09
2023-01-08T14:42:24.062Z,97202.69
2023-01-08T14:44:55.755Z,97197.75
2023-01-08T14:47:26.070Z,97188.28
2023-01-08T14:49:53.974Z,97194.59
2023-01-08T14:52:21.375Z,97192.94
2023-01-08T14:54:53.226Z,97191.59
2023-01-08T14:57:20.803Z,97189.47
2023-01-08T14:59:55.569Z,97186.81
2023-01-08T15:02:27.827Z,97187.63
2023-01-08T15:05:14.036Z,97176.78
2023-01-08T15:07:44.181Z,97166.94
2023-01-08T15:10:43.203Z,97172.72
2023-01-08T15:13:24.557Z,97168.41
2023-01-08T15:16:07.985Z,97165.63
2023-01-08T15:18:42.184Z,97158.75
2023-01-08T15:21:09.339Z,97163.84
2023-01-08T15:23:41.032Z,97165.81
2023-01-08T15:26:13.242Z,97163.31
2023-01-08T15:28:46.465Z,97168.91
2023-01-08T15:31:32.786Z,97155.88
2023-01-08T15:34:00.820Z,97163.03
2023-01-08T15:36:27.548Z,97156.03
2023-01-08T15:38:53.948Z,97160.19
2023-01-08T15:41:41.679Z,97167.00
2023-01-08T15:44:10.006Z,97160.34
2023-01-08T15:46:36.391Z,97166.00
2023-01-08T15:49:02.879Z,97161.66
2023-01-08T15:51:33.458Z,97156.03
2023-01-08T15:54:01.198Z,97155.69
2023-01-08T15:56:27.948Z,97150.63
2023-01-08T15:58:54.625Z,97147.03
2023-01-08T16:01:21.256Z,97148.69
2023-01-08T16:03:48.849Z,97150.72
2023-01-08T16:06:15.403Z,97143.28
2023-01-08T16:08:45.960Z,97144.72
2023-01-08T16:11:13.887Z,97136.47
2023-01-08T16:13:40.392Z,97142.94
2023-01-08T16:16:12.726Z,97138.75
2023-01-08T16:18:39.414Z,97132.94
2023-01-08T16:21:07.491Z,97133.53
2023-01-08T16:23:35.973Z,97131.84
2023-01-08T16:26:06.720Z,97140.88
2023-01-08T16:28:33.291Z,97133.59
2023-01-08T16:30:59.892Z,97125.09
2023-01-08T16:33:26.465Z,97126.75
2023-01-08T16:36:07.231Z,97116.88
2023-01-08T16:38:34.989Z,97119.44
2023-01-08T16:41:01.596Z,97122.97
2023-01-08T16:43:30.271Z,97120.00
2023-01-08T16:45:56.780Z,97122.97
2023-01-08T16:48:23.884Z,97118.44
2023-01-08T16:50:50.342Z,97117.28
2023-01-08T16:53:21.897Z,97125.69
2023-01-08T16:55:48.384Z,97130.44
2023-01-08T16:58:14.844Z,97115.97
2023-01-08T17:00:41.353Z,97112.75
2023-01-08T17:03:08.235Z,97098.06
2023-01-08T17:05:36.105Z,97109.44
2023-01-08T17:08:02.604Z,97107.75
2023-01-08T17:10:29.192Z,97102.31
2023-01-08T17:12:55.631Z,97098.00
2023-01-08T17:15:22.132Z,97097.16
2023-01-08T17:17:48.544Z,97095.34
2023-01-08T17:20:15.044Z,97092.56
2023-01-08T17:22:41.497Z,97096.38
2023-01-08T17:25:08.395Z,97093.38
2023-01-08T17:27:35.360Z,97097.03
2023-01-08T17:30:02.232Z,97095.81
2023-01-08T17:32:32.454Z,97091.66
2023-01-08T17:34:58.847Z,97093.69
2023-01-08T17:37:25.241Z,97082.00
2023-01-08T17:39:51.753Z,97083.38
2023-01-08T17:42:28.143Z,97078.53
2023-01-08T17:44:57.359Z,97075.00
2023-01-08T17:47:25.635Z,97071.03
2023-01-08T17:49:53.905Z,97071.84
2023-01-08T17:52:21.720Z,97075.00
2023-01-08T17:54:49.428Z,97068.13
2023-01-08T17:57:17.502Z,97067.50
2023-01-08T17:59:47.522Z,97056.47
2023-01-08T18:02:16.426Z,97063.50
2023-01-08T18:04:43.907Z,97062.94
2023-01-08T18:07:10.489Z,97057.75
2023-01-08T18:09:37.027Z,97051.44
2023-01-08T18:12:03.932Z,97055.25
2023-01-08T18:14:30.493Z,97046.69
2023-01-08T18:16:57.040Z,97049.59
2023-01-08T18:19:26.127Z,97043.84
2023-01-08T18:21:52.589Z,97039.53
2023-01-08T18:24:19.187Z,97024.50
2023-01-08T18:26:46.583Z,97033.63
2023-01-08T18:29:13.157Z,97023.94
2023-01-08T18:31:39.978Z,97027.41
2023-01-08T18:34:07.004Z,97017.50
2023-01-08T18:36:33.404Z,97028.94
2023-01-08T18:39:00.215Z,97024.19
2023-01-08T18:41:45.454Z,97020.41
2023-01-08T18:44:12.014Z,97019.00
2023-01-08T18:46:38.733Z,97024.31
2023-01-08T18:49:05.288Z,97019.19
2023-01-08T18:51:31.875Z,97021.09
2023-01-08T18:53:58.595Z,97026.09
2023-01-08T18:56:33.564Z,97020.03
2023-01-08T18:59:00.207Z,97008.59
2023-01-08T19:01:27.678Z,97011.25
2023-01-08T19:03:55.702Z,96999.09
2023-01-08T19:06:22.854Z,97008.59
2023-01-08T19:08:49.398Z,97002.72
2023-01-08T19:11:16.232Z,97008.47
2023-01-08T19:13:42.803Z,97024.63
2023-01-08T19:16:12.153Z,97017.94
2023-01-08T19:18:39.319Z,97015.34
2023-01-08T19:21:11.139Z,97015.66
2023-01-08T19:23:37.538Z,97018.94
2023-01-08T19:26:07.947Z,97020.19
2023-01-08T19:28:34.449Z,97018.50
2023-01-08T19:31:01.296Z,96998.94
2023-01-08T19:33:27.757Z,96995.81
2023-01-08T19:35:54.211Z,97000.28
2023-01-08T19:38:24.040Z,96988.34
2023-01-08T19:40:50.497Z,96983.09
2023-01-08T19:43:35.566Z,96987.22
2023-01-08T19:46:06.479Z,96977.78
2023-01-08T19:48:33.721Z,96980.78
2023-01-08T19:51:06.037Z,96963.56
2023-01-08T19:53:32.471Z,96951.16
2023-01-08T19:56:03.302Z,96952.09
2023-01-08T19:58:29.861Z,96941.69
2023-01-08T20:00:56.283Z,96933.13
2023-01-08T20:03:28.903Z,96942.19
2023-01-08T20:05:55.483Z,96940.09
2023-01-08T20:08:21.984Z,96943.63
2023-01-08T20:10:48.411Z,96925.16
2023-01-08T20:13:14.828Z,96930.94
2023-01-08T20:15:41.346Z,96918.16
2023-01-08T20:18:07.849Z,96922.56
2023-01-08T20:20:34.219Z,96908.44
2023-01-08T20:23:00.750Z,96908.56
2023-01-08T20:25:27.291Z,96904.97
2023-01-08T20:27:53.845Z,96905.03
2023-01-08T20:30:20.313Z,96898.50
2023-01-08T20:32:46.836Z,96900.34
2023-01-08T20:35:13.316Z,96897.16
2023-01-08T20:37:39.732Z,96895.19
2023-01-08T20:40:06.868Z,96892.84
2023-01-08T20:42:34.475Z,96890.19
2023-01-08T20:45:01.311Z,96894.31
2023-01-08T20:47:27.713Z,96891.56
2023-01-08T20:49:54.139Z,96890.44
2023-01-08T20:52:20.691Z,96889.38
2023-01-08T20:54:47.134Z,96883.88
2023-01-08T20:57:13.825Z,96869.28
2023-01-08T20:59:40.260Z,96877.75
2023-01-08T21:02:07.081Z,96871.66
2023-01-08T21:04:34.009Z,96869.69
2023-01-08T21:07:00.416Z,96871.53
2023-01-08T21:09:26.950Z,96866.94
2023-01-08T21:11:53.368Z,96855.63
2023-01-08T21:14:20.067Z,96862.31
2023-01-08T21:16:46.573Z,96854.28
2023-01-08T21:19:15.226Z,96859.28
2023-01-08T21:21:41.726Z,96844.31
2023-01-08T21:24:11.057Z,96839.28
2023-01-08T21:26:38.890Z,96836.63
2023-01-08T21:29:06.720Z,96829.69
2023-01-08T21:31:33.500Z,96832.53
2023-01-08T21:34:01.962Z,96827.75
2023-01-08T21:36:31.232Z,96815.69
2023-01-08T21:38:59.231Z,96809.16
2023-01-08T21:41:47.219Z,96796.50
2023-01-08T21:44:37.652Z,96790.56
2023-01-08T21:47:07.339Z,96785.38
2023-01-08T21:49:35.879Z,96778.06
2023-01-08T21:52:20.960Z,96776.94
2023-01-08T21:54:47.375Z,96767.53
2023-01-08T21:57:13.836Z,96764.28
2023-01-08T21:59:40.384Z,96758.53
2023-01-08T22:02:06.820Z,96755.59
2023-01-08T22:04:33.537Z,96751.28
2023-01-08T22:07:00.019Z,96744.16
2023-01-08T22:09:26.498Z,96735.38
2023-01-08T22:11:54.657Z,96728.41
2023-01-08T22:14:21.090Z,96726.81
2023-01-08T22:16:47.555Z,96717.31
2023-01-08T22:19:14.071Z,96718.94
2023-01-08T22:21:40.793Z,96703.34
2023-01-08T22:24:07.326Z,96715.19
2023-01-08T22:26:35.143Z,96708.63
2023-01-08T22:29:02.975Z,96698.19
2023-01-08T22:31:29.513Z,96699.06
2023-01-08T22:33:56.158Z,96680.88
2023-01-08T22:36:22.578Z,96683.59
2023-01-08T22:38:48.969Z,96671.16
2023-01-08T22:41:20.947Z,96679.06
2023-01-08T22:43:47.575Z,96677.53
2023-01-08T22:46:16.278Z,96669.78
2023-01-08T22:48:43.642Z,96671.06
2023-01-08T22:51:10.924Z,96664.47
2023-01-08T22:53:37.513Z,96655.50
2023-01-08T22:56:11.852Z,96660.41
2023-01-08T22:58:40.081Z,96654.38
2023-01-08T23:01:19.884Z,96649.72
2023-01-08T23:03:54.683Z,96650.38
2023-01-08T23:06:22.877Z,96646.25
2023-01-08T23:08:49.928Z,96651.44
2023-01-08T23:11:18.326Z,96642.22
2023-01-08T23:13:45.171Z,96651.59
2023-01-08T23:16:13.432Z,96636.75
2023-01-08T23:18:40.713Z,96635.81
2023-01-08T23:21:10.624Z,96641.25
2023-01-08T23:23:37.292Z,96636.31
2023-01-08T23:26:09.657Z,96620.66
2023-01-08T23:28:36.659Z,96620.03
2023-01-08T23:31:07.801Z,96625.41
2023-01-08T23:33:34.395Z,96615.81
2023-01-08T23:36:01.589Z,96614.16
2023-01-08T23:38:28.207Z,96614.84
2023-01-08T23:40:54.739Z,96619.22
2023-01-08T23:43:21.134Z,96614.81
2023-01-08T23:45:47.621Z,96622.59
2023-01-08T23:48:14.041Z,96612.06
2023-01-08T23:50:40.517Z,96610.66
2023-01-08T23:53:07.213Z,96609.56
2023-01-08T23:55:33.829Z,96619.47
2023-01-08T23:58:00.263Z,96599.75
